Time;durP1;ratioP1;P1;durP2;ratioP2;P2;SDS_P1;SDS_P2;PMS_P1;PMS_P2;Temp;Humidity;BMP_temperature;BMP_pressure;BME280_temperature;BME280_humidity;BME280_pressure;Samples;Min_cycle;Max_cycle;Signal;HPM_P1;HPM_P2
2022/08/10 00:01:21;;;;;;;2.60;2.33;;;16.20;99.90;;;;;;5003806;28;20495;-60
2022/08/10 00:03:47;;;;;;;3.67;2.45;;;16.30;99.90;;;;;;5001534;28;20049;-57
2022/08/10 00:06:13;;;;;;;3.33;2.80;;;16.30;99.90;;;;;;5022069;28;20052;-57
2022/08/10 00:08:39;;;;;;;6.15;3.20;;;16.30;99.90;;;;;;5025049;28;20049;-59
2022/08/10 00:11:05;;;;;;;5.50;3.38;;;16.30;99.90;;;;;;5026458;28;20045;-62
2022/08/10 00:13:31;;;;;;;3.08;2.70;;;16.30;99.90;;;;;;5021875;28;20042;-59
2022/08/10 00:15:56;;;;;;;5.07;3.25;;;16.40;99.90;;;;;;5020740;28;20073;-61
2022/08/10 00:18:23;;;;;;;4.03;3.15;;;16.40;99.90;;;;;;5026367;28;20045;-56
2022/08/10 00:20:49;;;;;;;8.57;3.30;;;16.40;99.90;;;;;;5025295;28;20633;-57
2022/08/10 00:23:14;;;;;;;6.82;3.25;;;16.30;99.90;;;;;;5026576;28;20046;-63
2022/08/10 00:25:40;;;;;;;5.00;3.08;;;16.40;99.90;;;;;;5023594;28;20132;-62
2022/08/10 00:28:06;;;;;;;4.40;3.10;;;16.30;99.90;;;;;;5026559;28;20045;-61
2022/08/10 00:30:31;;;;;;;7.32;3.35;;;16.30;99.90;;;;;;5025140;28;20099;-66
2022/08/10 00:32:57;;;;;;;6.45;3.40;;;16.30;99.90;;;;;;5024500;28;20124;-57
2022/08/10 00:35:23;;;;;;;3.50;2.97;;;16.20;99.90;;;;;;5024189;28;20041;-58
2022/08/10 00:37:48;;;;;;;8.65;3.33;;;16.20;99.90;;;;;;5024327;28;20053;-64
2022/08/10 00:40:14;;;;;;;3.75;3.20;;;16.30;99.90;;;;;;5025542;28;20116;-60
2022/08/10 00:42:40;;;;;;;6.68;3.40;;;16.30;99.90;;;;;;5024646;28;20061;-62
2022/08/10 00:45:06;;;;;;;5.15;3.50;;;16.30;99.90;;;;;;5025561;28;20253;-57
2022/08/10 00:47:31;;;;;;;4.90;3.58;;;16.20;99.90;;;;;;5007301;28;20099;-66
2022/08/10 00:49:57;;;;;;;5.47;3.85;;;16.20;99.90;;;;;;5005987;28;20124;-63
2022/08/10 00:52:24;;;;;;;4.60;3.60;;;16.20;99.90;;;;;;5015626;28;20045;-56
2022/08/10 00:54:51;;;;;;;5.15;3.22;;;16.20;99.90;;;;;;5008202;28;20068;-58
2022/08/10 00:57:17;;;;;;;6.55;3.80;;;16.20;99.90;;;;;;5025513;28;20046;-57
2022/08/10 00:59:43;;;;;;;4.18;3.78;;;16.20;99.90;;;;;;5024652;28;20970;-65
2022/08/10 01:02:09;;;;;;;5.03;3.75;;;16.20;99.90;;;;;;5025124;28;20153;-60
2022/08/10 01:04:35;;;;;;;5.07;3.60;;;16.10;99.90;;;;;;5005263;28;20050;-64
2022/08/10 01:07:19;;;;;;;9.07;3.30;;;16.10;99.90;;;;;;4996932;28;20117;-61
2022/08/10 01:10:03;;;;;;;7.00;4.07;;;16.10;99.90;;;;;;5005071;28;20112;-67
2022/08/10 01:12:54;;;;;;;6.80;3.95;;;16.10;99.90;;;;;;5005919;28;20093;-59
2022/08/10 01:15:28;;;;;;;6.85;4.07;;;16.00;99.90;;;;;;5006971;28;20045;-60
2022/08/10 01:18:01;;;;;;;5.57;4.85;;;16.00;99.90;;;;;;4991469;28;20169;-62
2022/08/10 01:20:55;;;;;;;5.93;4.30;;;16.00;99.90;;;;;;5006355;28;20053;-59
2022/08/10 01:23:48;;;;;;;6.40;4.32;;;16.00;99.90;;;;;;4977533;28;20048;-57
2022/08/10 01:26:53;;;;;;;4.93;3.83;;;16.00;99.90;;;;;;5007666;28;20046;-63
2022/08/10 01:29:55;;;;;;;5.38;4.13;;;16.00;99.90;;;;;;5004746;28;20058;-61
2022/08/10 01:32:50;;;;;;;5.03;3.63;;;16.00;99.90;;;;;;5009950;28;20064;-63
2022/08/10 01:35:29;;;;;;;7.53;3.60;;;16.00;99.90;;;;;;4960168;28;20046;-62
2022/08/10 01:38:03;;;;;;;5.13;3.80;;;16.00;99.90;;;;;;4986063;28;20136;-62
2022/08/10 01:40:33;;;;;;;4.10;3.65;;;16.00;99.90;;;;;;5009854;28;20061;-57
2022/08/10 01:43:08;;;;;;;4.03;3.47;;;16.00;99.90;;;;;;5008290;28;20459;-62
2022/08/10 01:45:42;;;;;;;7.07;3.67;;;16.00;99.90;;;;;;4992594;28;20046;-55
2022/08/10 01:48:29;;;;;;;5.45;4.18;;;16.00;99.90;;;;;;4983806;28;20054;-61
2022/08/10 01:51:10;;;;;;;4.38;3.92;;;16.00;99.90;;;;;;5008712;28;20611;-57
2022/08/10 01:53:55;;;;;;;6.40;4.10;;;15.90;99.90;;;;;;5009192;28;20610;-64
2022/08/10 01:56:23;;;;;;;7.70;4.25;;;15.90;99.90;;;;;;5008420;28;20053;-60
2022/08/10 01:58:54;;;;;;;8.93;4.27;;;15.90;99.90;;;;;;4989734;28;20049;-60
2022/08/10 02:01:23;;;;;;;8.02;4.20;;;15.80;99.90;;;;;;4991063;28;20830;-57
2022/08/10 02:03:51;;;;;;;10.50;4.13;;;15.80;99.90;;;;;;5023069;28;20459;-67
2022/08/10 02:06:19;;;;;;;5.97;4.10;;;15.80;99.90;;;;;;5027951;28;20049;-56
2022/08/10 02:08:46;;;;;;;5.85;3.90;;;15.90;99.90;;;;;;4992633;28;20053;-61
2022/08/10 02:11:13;;;;;;;6.50;3.88;;;15.80;99.90;;;;;;5027889;28;20123;-66
2022/08/10 02:13:41;;;;;;;5.78;3.40;;;15.80;99.90;;;;;;5025988;28;20120;-60
2022/08/10 02:16:10;;;;;;;6.32;3.00;;;15.80;99.90;;;;;;5010610;28;20056;-66
2022/08/10 02:18:37;;;;;;;7.22;3.75;;;15.80;99.90;;;;;;5026859;28;20056;-62
2022/08/10 02:21:05;;;;;;;4.90;3.20;;;15.90;99.90;;;;;;5028008;28;20558;-58
2022/08/10 02:23:34;;;;;;;5.47;3.70;;;15.90;99.90;;;;;;5028406;28;20041;-55
2022/08/10 02:26:02;;;;;;;6.28;3.70;;;16.00;99.90;;;;;;5009882;28;20087;-62
2022/08/10 02:28:31;;;;;;;7.82;3.83;;;16.00;99.90;;;;;;5004843;28;20073;-65
2022/08/10 02:31:17;;;;;;;6.53;3.28;;;16.10;99.90;;;;;;5005510;28;20053;-66
2022/08/10 02:33:46;;;;;;;6.88;2.97;;;16.10;99.90;;;;;;5000459;28;20045;-63
2022/08/10 02:36:13;;;;;;;6.43;2.80;;;16.10;99.90;;;;;;5026873;28;20735;-57
2022/08/10 02:38:54;;;;;;;5.60;3.22;;;16.00;99.90;;;;;;5010670;28;20403;-59
2022/08/10 02:41:41;;;;;;;5.97;3.47;;;16.00;99.90;;;;;;5027350;28;20053;-63
2022/08/10 02:44:16;;;;;;;6.88;3.60;;;16.10;99.90;;;;;;5026438;28;20045;-56
2022/08/10 02:46:47;;;;;;;6.00;3.80;;;16.00;99.90;;;;;;5010579;28;20455;-60
2022/08/10 02:49:31;;;;;;;5.85;4.13;;;16.00;99.90;;;;;;5026889;28;20332;-58
2022/08/10 02:52:08;;;;;;;5.88;3.50;;;15.90;99.90;;;;;;4999511;28;20056;-60
2022/08/10 02:54:42;;;;;;;7.18;3.78;;;15.90;99.90;;;;;;5028433;28;20045;-59
2022/08/10 02:57:27;;;;;;;9.05;4.25;;;15.90;99.90;;;;;;5008472;28;20487;-57
2022/08/10 02:59:58;;;;;;;4.43;4.00;;;15.80;99.90;;;;;;5027825;28;20054;-57
2022/08/10 03:02:35;;;;;;;9.15;4.00;;;15.80;99.90;;;;;;5026024;28;20069;-61
2022/08/10 03:05:08;;;;;;;5.60;4.43;;;15.80;99.90;;;;;;5008633;28;20430;-60
2022/08/10 03:07:42;;;;;;;7.88;4.65;;;15.70;99.90;;;;;;5016338;28;20041;-57
2022/08/10 03:10:18;;;;;;;5.28;4.22;;;15.70;99.90;;;;;;5026463;28;20135;-67
2022/08/10 03:12:48;;;;;;;5.82;4.18;;;15.80;99.90;;;;;;5020515;28;20049;-58
2022/08/10 03:15:16;;;;;;;7.18;4.20;;;15.80;99.90;;;;;;5026689;28;20041;-57
2022/08/10 03:17:44;;;;;;;5.68;4.03;;;15.80;99.90;;;;;;5009373;28;20045;-62
2022/08/10 03:20:11;;;;;;;4.53;3.65;;;15.90;99.90;;;;;;5027292;28;20543;-62
2022/08/10 03:22:39;;;;;;;4.45;4.00;;;15.80;99.90;;;;;;5020008;28;20063;-65
2022/08/10 03:25:07;;;;;;;4.75;3.97;;;15.80;99.90;;;;;;5027127;28;20064;-68
2022/08/10 03:27:33;;;;;;;5.15;4.07;;;15.70;99.90;;;;;;5008964;28;20045;-67
2022/08/10 03:29:59;;;;;;;7.82;4.20;;;15.70;99.90;;;;;;5027283;28;20095;-66
2022/08/10 03:32:26;;;;;;;8.30;4.07;;;15.70;99.90;;;;;;5023490;28;20436;-57
2022/08/10 03:34:52;;;;;;;5.90;3.90;;;15.80;99.90;;;;;;5025702;28;20045;-59
2022/08/10 03:37:18;;;;;;;4.22;3.70;;;15.80;99.90;;;;;;5026740;28;20049;-56
2022/08/10 03:39:44;;;;;;;7.68;4.32;;;15.80;99.90;;;;;;5008529;28;21195;-62
2022/08/10 03:42:13;;;;;;;7.63;4.28;;;15.80;99.90;;;;;;5026689;28;20084;-63
2022/08/10 03:44:41;;;;;;;4.88;3.85;;;15.70;99.90;;;;;;5024278;28;20128;-60
2022/08/10 03:47:10;;;;;;;5.78;4.07;;;15.80;99.90;;;;;;5026364;28;20046;-64
2022/08/10 03:49:37;;;;;;;8.40;4.25;;;15.70;99.90;;;;;;5026048;28;20043;-56
2022/08/10 03:52:05;;;;;;;10.95;4.40;;;15.70;99.90;;;;;;5018671;28;20132;-61
2022/08/10 03:54:32;;;;;;;7.45;4.13;;;15.70;99.90;;;;;;5026668;28;20125;-57
2022/08/10 03:56:58;;;;;;;4.38;3.65;;;15.70;99.90;;;;;;5026214;28;20124;-65
2022/08/10 03:59:24;;;;;;;6.72;4.10;;;15.70;99.90;;;;;;5024807;28;20049;-53
2022/08/10 04:01:51;;;;;;;8.13;4.47;;;15.70;99.90;;;;;;5025915;28;20041;-57
2022/08/10 04:04:18;;;;;;;6.22;4.35;;;15.70;99.90;;;;;;5026414;28;20046;-64
2022/08/10 04:06:44;;;;;;;5.32;4.03;;;15.70;99.90;;;;;;5007750;28;20057;-60
2022/08/10 04:09:10;;;;;;;8.52;5.00;;;15.70;99.90;;;;;;5026346;28;20044;-64
2022/08/10 04:11:36;;;;;;;5.15;4.07;;;15.70;99.90;;;;;;5024288;28;20128;-57
2022/08/10 04:14:03;;;;;;;4.45;4.05;;;15.70;99.90;;;;;;5026161;28;20045;-56
2022/08/10 04:16:29;;;;;;;7.10;4.07;;;15.70;99.90;;;;;;5026546;28;20081;-63
2022/08/10 04:18:54;;;;;;;6.72;4.63;;;15.70;99.90;;;;;;5007960;28;20092;-55
2022/08/10 04:21:25;;;;;;;5.85;4.88;;;15.80;99.90;;;;;;5021031;28;20479;-57
2022/08/10 04:23:52;;;;;;;8.18;4.38;;;15.80;99.90;;;;;;5025490;28;20033;-61
2022/08/10 04:26:19;;;;;;;6.68;4.78;;;15.70;99.90;;;;;;5026057;28;20446;-61
2022/08/10 04:28:45;;;;;;;6.22;4.80;;;15.70;99.90;;;;;;5008110;28;20573;-59
2022/08/10 04:31:15;;;;;;;8.40;5.43;;;15.70;99.90;;;;;;5006052;28;20116;-57
2022/08/10 04:33:44;;;;;;;10.00;4.82;;;15.80;99.90;;;;;;5026474;28;20420;-66
2022/08/10 04:36:12;;;;;;;11.85;4.82;;;15.80;99.90;;;;;;5025046;28;20053;-62
2022/08/10 04:38:40;;;;;;;9.30;5.15;;;15.80;99.90;;;;;;5026680;28;20092;-62
2022/08/10 04:41:08;;;;;;;10.45;5.22;;;15.80;99.90;;;;;;5020146;28;20108;-67
2022/08/10 04:43:34;;;;;;;5.28;4.78;;;15.80;99.90;;;;;;5012867;28;20049;-62
2022/08/10 04:46:00;;;;;;;8.40;5.15;;;15.90;99.90;;;;;;5007664;28;20054;-60
2022/08/10 04:48:25;;;;;;;7.43;5.25;;;15.90;99.90;;;;;;5025879;28;20048;-60
2022/08/10 04:50:51;;;;;;;8.95;5.50;;;15.90;99.90;;;;;;5008356;28;20045;-57
2022/08/10 04:53:17;;;;;;;8.63;5.40;;;15.90;99.90;;;;;;5023354;28;20092;-61
2022/08/10 04:55:42;;;;;;;5.63;4.30;;;15.90;99.90;;;;;;5026294;28;20523;-61
2022/08/10 04:58:08;;;;;;;5.55;4.45;;;15.90;99.90;;;;;;5008153;28;20041;-68
2022/08/10 05:00:34;;;;;;;5.85;4.32;;;16.00;99.90;;;;;;5006786;28;20473;-63
2022/08/10 05:03:00;;;;;;;9.90;5.30;;;16.10;99.90;;;;;;5027670;28;20061;-59
2022/08/10 05:05:26;;;;;;;7.97;5.07;;;16.10;99.90;;;;;;5011831;28;20052;-61
2022/08/10 05:07:51;;;;;;;7.55;5.07;;;16.10;99.90;;;;;;5029358;28;20159;-57
2022/08/10 05:10:17;;;;;;;9.57;4.88;;;16.20;99.90;;;;;;5028303;28;20041;-64
2022/08/10 05:12:43;;;;;;;7.38;4.82;;;16.20;99.90;;;;;;5010853;28;20041;-58
2022/08/10 05:15:11;;;;;;;5.20;4.10;;;16.30;99.90;;;;;;5010813;28;20053;-58
2022/08/10 05:17:38;;;;;;;11.25;4.13;;;16.40;99.90;;;;;;5030038;28;20483;-61
2022/08/10 05:20:07;;;;;;;5.78;3.60;;;16.40;99.90;;;;;;5028619;28;20049;-63
2022/08/10 05:22:44;;;;;;;7.93;3.30;;;16.50;99.90;;;;;;5027520;28;20053;-55
2022/08/10 05:25:15;;;;;;;5.65;3.88;;;16.50;99.90;;;;;;5011668;28;20092;-58
2022/08/10 05:27:42;;;;;;;4.63;3.75;;;16.60;99.90;;;;;;5028812;28;20083;-61
2022/08/10 05:30:12;;;;;;;8.02;3.63;;;16.60;99.90;;;;;;5029629;28;20057;-67
2022/08/10 05:32:37;;;;;;;6.22;3.10;;;16.70;99.90;;;;;;5019374;28;20053;-54
2022/08/10 05:35:04;;;;;;;6.53;3.03;;;16.80;99.90;;;;;;5029581;28;20037;-57
2022/08/10 05:37:31;;;;;;;3.75;2.90;;;16.80;99.90;;;;;;5028126;28;20042;-60
2022/08/10 05:39:57;;;;;;;4.93;3.00;;;16.90;99.90;;;;;;5029565;28;20045;-60
2022/08/10 05:42:24;;;;;;;4.22;3.35;;;17.00;99.90;;;;;;5024482;28;20587;-54
2022/08/10 05:44:50;;;;;;;7.18;3.45;;;17.00;99.90;;;;;;5007372;28;20125;-61
2022/08/10 05:47:17;;;;;;;8.15;3.00;;;17.20;99.90;;;;;;5028733;28;20474;-62
2022/08/10 05:49:43;;;;;;;5.57;2.95;;;17.20;99.90;;;;;;5028061;28;20452;-60
2022/08/10 05:52:08;;;;;;;6.20;3.33;;;17.20;99.90;;;;;;5027368;28;20407;-61
2022/08/10 05:54:34;;;;;;;3.97;2.53;;;17.30;99.90;;;;;;5027524;28;20049;-62
2022/08/10 05:57:00;;;;;;;4.00;2.55;;;17.30;99.90;;;;;;5011395;28;20052;-66
2022/08/10 05:59:30;;;;;;;6.70;2.60;;;17.40;99.90;;;;;;5017552;28;20136;-61
2022/08/10 06:01:57;;;;;;;5.65;2.50;;;17.40;99.90;;;;;;5025233;28;20060;-63
2022/08/10 06:04:28;;;;;;;9.23;2.45;;;17.40;99.90;;;;;;5028204;28;20096;-61
2022/08/10 06:06:56;;;;;;;3.70;2.40;;;17.40;99.90;;;;;;5010202;28;20049;-60
2022/08/10 06:09:24;;;;;;;6.30;2.67;;;17.50;99.90;;;;;;5027869;28;20522;-58
2022/08/10 06:11:52;;;;;;;4.40;2.60;;;17.50;99.90;;;;;;5009943;28;20545;-57
2022/08/10 06:17:04;;;;;;;3.42;2.20;;;17.70;99.90;;;;;;5028407;28;20160;-63
2022/08/10 06:19:31;;;;;;;5.43;2.20;;;17.70;99.90;;;;;;5009841;28;20115;-59
2022/08/10 06:21:57;;;;;;;4.13;2.03;;;17.80;99.90;;;;;;5028705;28;20103;-64
2022/08/10 06:24:24;;;;;;;2.97;2.13;;;17.80;99.90;;;;;;5027155;28;20172;-63
2022/08/10 06:26:50;;;;;;;2.85;2.25;;;17.90;99.90;;;;;;5008908;28;20409;-59
2022/08/10 06:29:18;;;;;;;2.55;2.17;;;18.00;99.90;;;;;;5023432;28;20046;-61
2022/08/10 06:31:49;;;;;;;7.15;2.15;;;18.00;99.90;;;;;;5028345;28;20045;-61
2022/08/10 06:34:21;;;;;;;4.07;2.05;;;18.10;99.90;;;;;;5010222;28;20050;-54
2022/08/10 06:36:47;;;;;;;6.20;2.25;;;18.10;99.90;;;;;;5027841;28;20100;-62
2022/08/10 06:39:13;;;;;;;11.73;2.22;;;18.20;99.90;;;;;;5028517;28;20487;-66
2022/08/10 06:41:50;;;;;;;3.28;2.08;;;18.20;99.90;;;;;;5026651;28;20206;-62
2022/08/10 06:44:21;;;;;;;2.70;1.70;;;18.30;99.90;;;;;;5028868;28;20145;-64
2022/08/10 06:46:50;;;;;;;8.35;1.75;;;18.30;99.90;;;;;;5009068;28;20072;-56
2022/08/10 06:49:21;;;;;;;2.80;1.63;;;18.40;99.90;;;;;;5010477;28;20056;-63
2022/08/10 06:51:53;;;;;;;1.77;1.50;;;18.40;99.90;;;;;;5010157;28;20041;-53
2022/08/10 06:54:22;;;;;;;3.50;1.73;;;18.40;99.90;;;;;;5027429;28;20042;-57
2022/08/10 06:56:51;;;;;;;4.72;1.40;;;18.50;99.90;;;;;;5027890;28;20045;-63
2022/08/10 06:59:21;;;;;;;7.18;2.40;;;18.60;99.90;;;;;;5009228;28;20045;-59
2022/08/10 07:01:56;;;;;;;1.27;1.20;;;18.70;99.90;;;;;;5027786;28;20049;-58
2022/08/10 07:04:54;;;;;;;1.77;1.48;;;18.80;99.90;;;;;;5027171;28;20122;-68
2022/08/10 07:07:26;;;;;;;2.17;1.30;;;18.80;99.90;;;;;;5004863;28;20041;-59
2022/08/10 07:09:53;;;;;;;4.55;1.58;;;19.00;99.90;;;;;;5028067;28;20037;-59
2022/08/10 07:12:22;;;;;;;4.40;1.55;;;19.10;99.90;;;;;;5024414;28;20419;-62
2022/08/10 07:14:53;;;;;;;4.25;1.25;;;19.30;99.90;;;;;;5023456;28;20041;-62
2022/08/10 07:17:22;;;;;;;4.15;1.10;;;19.50;99.90;;;;;;5025045;28;20081;-65
2022/08/10 07:19:51;;;;;;;4.28;1.30;;;19.70;99.90;;;;;;5016942;28;20041;-55
2022/08/10 07:22:20;;;;;;;4.97;1.30;;;19.90;99.90;;;;;;5027630;28;20506;-65
2022/08/10 07:24:46;;;;;;;4.18;1.50;;;20.10;99.90;;;;;;5018480;28;20128;-64
2022/08/10 07:27:13;;;;;;;4.75;1.30;;;20.30;99.90;;;;;;5008611;28;20041;-60
2022/08/10 07:29:40;;;;;;;3.45;0.80;;;20.60;99.90;;;;;;5007369;28;20085;-56
2022/08/10 07:32:08;;;;;;;2.13;1.13;;;20.70;99.90;;;;;;5009296;28;20087;-59
2022/08/10 07:34:35;;;;;;;6.20;1.35;;;20.90;99.90;;;;;;5007462;28;20045;-56
2022/08/10 07:37:03;;;;;;;2.60;1.48;;;21.20;99.90;;;;;;5027029;28;20053;-67
2022/08/10 07:39:32;;;;;;;5.28;1.45;;;21.40;99.60;;;;;;5026722;28;20146;-59
2022/08/10 07:41:59;;;;;;;4.63;1.17;;;21.60;99.90;;;;;;5026222;28;20124;-56
2022/08/10 07:44:27;;;;;;;2.05;0.93;;;21.80;91.20;;;;;;5025083;28;20474;-63
2022/08/10 07:46:56;;;;;;;5.32;1.00;;;21.90;98.20;;;;;;5020904;28;20049;-61
2022/08/10 07:49:25;;;;;;;1.13;0.83;;;22.10;90.30;;;;;;5006640;28;20049;-62
2022/08/10 07:51:52;;;;;;;3.17;1.13;;;22.30;96.10;;;;;;5019202;28;20276;-61
2022/08/10 07:54:21;;;;;;;1.45;1.30;;;22.60;88.50;;;;;;5006050;28;20677;-63
2022/08/10 07:56:50;;;;;;;2.67;1.10;;;22.70;75.90;;;;;;5019108;28;20503;-67
2022/08/10 07:59:21;;;;;;;4.18;1.00;;;22.70;84.50;;;;;;4989934;28;20072;-59
2022/08/10 08:01:52;;;;;;;3.58;1.00;;;22.80;77.40;;;;;;5005450;28;20051;-61
2022/08/10 08:04:21;;;;;;;1.67;0.85;;;23.00;82.60;;;;;;5015254;28;20057;-60
2022/08/10 08:06:48;;;;;;;4.07;0.75;;;23.20;69.00;;;;;;4989411;28;20041;-55
2022/08/10 08:09:14;;;;;;;3.60;0.90;;;23.30;64.10;;;;;;5022191;28;20061;-67
2022/08/10 08:11:42;;;;;;;1.92;0.82;;;23.30;65.60;;;;;;5004408;28;20077;-62
2022/08/10 08:14:10;;;;;;;3.70;0.90;;;23.50;64.80;;;;;;5022519;28;20048;-54
2022/08/10 08:16:40;;;;;;;3.05;1.13;;;23.60;63.90;;;;;;5021473;28;20678;-64
2022/08/10 08:19:06;;;;;;;2.08;1.00;;;23.90;60.10;;;;;;5023382;28;20088;-63
2022/08/10 08:21:34;;;;;;;9.20;0.93;;;23.90;65.00;;;;;;5009993;28;20034;-58
2022/08/10 08:24:01;;;;;;;3.58;0.70;;;24.10;67.50;;;;;;4998892;28;20112;-56
2022/08/10 08:26:28;;;;;;;2.53;0.77;;;24.10;63.10;;;;;;5016870;28;20033;-58
2022/08/10 08:28:55;;;;;;;3.38;0.70;;;24.10;54.30;;;;;;5019405;28;20140;-58
2022/08/10 08:31:22;;;;;;;1.63;0.75;;;24.10;55.20;;;;;;5024266;28;20034;-67
2022/08/10 08:33:49;;;;;;;3.92;0.80;;;24.20;47.40;;;;;;5027053;28;20057;-62
2022/08/10 08:36:18;;;;;;;10.45;0.90;;;24.30;33.40;;;;;;5031785;28;20552;-59
2022/08/10 08:38:46;;;;;;;2.05;0.65;;;24.30;38.30;;;;;;5024797;28;20147;-61
2022/08/10 08:41:36;;;;;;;1.95;0.70;;;24.30;31.50;;;;;;5025562;28;20053;-62
2022/08/10 08:44:14;;;;;;;1.52;0.70;;;24.30;29.00;;;;;;5030737;28;20081;-62
2022/08/10 08:47:05;;;;;;;0.55;0.52;;;24.50;37.30;;;;;;5029297;28;20056;-61
2022/08/10 08:49:41;;;;;;;10.02;1.10;;;24.70;34.70;;;;;;5009946;28;20053;-60
2022/08/10 08:52:10;;;;;;;1.73;0.60;;;24.70;27.70;;;;;;5023292;28;20077;-57
2022/08/10 08:54:54;;;;;;;2.42;0.60;;;24.70;33.40;;;;;;5028864;28;20041;-64
2022/08/10 08:57:50;;;;;;;2.00;0.75;;;24.60;26.60;;;;;;5014076;28;20082;-63
2022/08/10 09:00:37;;;;;;;0.70;0.70;;;24.50;28.00;;;;;;5025586;28;20045;-56
2022/08/10 09:03:38;;;;;;;7.53;0.85;;;24.30;34.70;;;;;;5012875;28;20136;-62
2022/08/10 09:06:27;;;;;;;3.60;0.75;;;24.20;34.60;;;;;;5020893;28;20054;-54
2022/08/10 09:09:05;;;;;;;0.55;0.55;;;24.10;29.30;;;;;;5010280;28;20080;-58
2022/08/10 09:12:21;;;;;;;1.00;0.70;;;24.30;43.80;;;;;;5014383;28;20049;-60
2022/08/10 09:14:55;;;;;;;0.73;0.63;;;24.30;28.80;;;;;;5003586;28;20053;-61
2022/08/10 09:17:39;;;;;;;3.30;0.65;;;24.40;26.10;;;;;;5018518;28;20461;-53
2022/08/10 09:20:17;;;;;;;2.60;0.95;;;24.50;26.60;;;;;;5029018;28;20085;-63
2022/08/10 09:23:02;;;;;;;4.55;0.50;;;24.40;28.70;;;;;;5028471;28;20084;-57
2022/08/10 09:25:43;;;;;;;1.55;0.80;;;24.60;38.20;;;;;;4994523;28;20046;-57
2022/08/10 09:28:18;;;;;;;2.72;0.47;;;24.70;31.50;;;;;;5022632;28;20080;-63
2022/08/10 09:30:52;;;;;;;4.55;0.70;;;24.80;26.60;;;;;;5013258;28;20053;-60
2022/08/10 09:33:26;;;;;;;2.92;0.50;;;25.00;22.40;;;;;;5032096;28;20041;-60
2022/08/10 09:36:00;;;;;;;1.52;0.60;;;25.20;14.30;;;;;;5024052;28;20072;-57
2022/08/10 09:38:43;;;;;;;2.00;0.90;;;25.20;8.60;;;;;;5029709;28;20415;-59
2022/08/10 09:41:21;;;;;;;5.10;0.88;;;25.20;13.70;;;;;;5028297;28;21105;-67
2022/08/10 09:44:05;;;;;;;3.35;1.00;;;25.20;14.00;;;;;;5029614;28;20491;-60
2022/08/10 09:46:39;;;;;;;2.05;0.80;;;25.30;8.80;;;;;;5025192;28;20121;-60
2022/08/10 09:49:30;;;;;;;4.32;0.73;;;25.10;12.00;;;;;;5009709;28;20408;-60
2022/08/10 09:52:08;;;;;;;5.43;0.90;;;25.20;12.40;;;;;;5027661;28;20072;-58
2022/08/10 09:54:52;;;;;;;3.70;0.68;;;25.30;15.80;;;;;;5029458;28;20424;-61
2022/08/10 09:57:41;;;;;;;0.70;0.70;;;25.30;8.60;;;;;;5028525;28;20052;-59
2022/08/10 10:00:14;;;;;;;2.90;0.63;;;25.40;14.70;;;;;;5009527;28;20057;-61
2022/08/10 10:03:12;;;;;;;4.57;1.10;;;25.50;6.70;;;;;;5028510;28;20108;-58
2022/08/10 10:05:38;;;;;;;3.05;0.80;;;25.70;7.00;;;;;;5023560;28;20160;-60
2022/08/10 10:09:11;;;;;;;1.55;0.80;;;25.80;5.60;;;;;;5009425;28;20060;-62
2022/08/10 10:12:06;;;;;;;3.70;0.60;;;25.70;5.20;;;;;;4919308;28;20051;-67
2022/08/10 10:14:31;;;;;;;1.75;1.00;;;25.60;7.60;;;;;;5009231;28;20049;-57
2022/08/10 10:17:29;;;;;;;0.63;0.60;;;25.60;6.60;;;;;;5026839;28;20098;-64
2022/08/10 10:20:21;;;;;;;3.50;1.08;;;25.60;14.60;;;;;;4995312;28;20052;-58
2022/08/10 10:23:26;;;;;;;2.00;0.80;;;25.80;20.60;;;;;;5007542;28;20140;-59
2022/08/10 10:26:01;;;;;;;3.50;1.08;;;25.50;6.50;;;;;;5015119;28;20050;-61
2022/08/10 10:28:39;;;;;;;5.82;1.02;;;25.30;14.00;;;;;;5010883;28;20450;-57
2022/08/10 10:31:25;;;;;;;1.07;0.73;;;25.20;14.60;;;;;;5019916;28;20609;-67
2022/08/10 10:34:28;;;;;;;2.67;1.10;;;25.30;12.20;;;;;;5027965;28;20092;-64
2022/08/10 10:36:57;;;;;;;1.05;0.88;;;25.40;15.10;;;;;;5024320;28;20128;-62
2022/08/10 10:39:25;;;;;;;4.07;1.20;;;25.40;8.90;;;;;;5009058;28;20049;-64
2022/08/10 10:42:23;;;;;;;2.92;0.95;;;25.40;13.80;;;;;;5023484;28;20050;-61
2022/08/10 10:44:51;;;;;;;6.40;1.00;;;25.40;12.60;;;;;;4996604;28;20061;-56
2022/08/10 10:47:32;;;;;;;2.08;0.90;;;25.30;13.70;;;;;;5026946;28;20045;-66
2022/08/10 10:50:12;;;;;;;8.95;0.90;;;25.60;19.60;;;;;;5026478;28;20045;-59
2022/08/10 10:53:16;;;;;;;4.95;0.90;;;25.60;10.20;;;;;;5025228;28;20739;-62
2022/08/10 10:55:55;;;;;;;7.53;0.77;;;25.80;6.70;;;;;;5015154;28;20065;-63
2022/08/10 10:58:29;;;;;;;5.75;0.73;;;26.00;4.60;;;;;;5025523;28;20038;-57
2022/08/10 11:01:06;;;;;;;0.50;0.50;;;26.20;2.50;;;;;;5007875;28;20555;-60
2022/08/10 11:03:47;;;;;;;2.33;0.80;;;26.30;1.00;;;;;;5026345;28;20053;-62
2022/08/10 11:06:30;;;;;;;3.30;0.80;;;26.40;1.00;;;;;;5008764;28;20099;-56
2022/08/10 11:09:01;;;;;;;4.18;0.70;;;26.50;1.50;;;;;;5023316;28;20088;-64
2022/08/10 11:11:40;;;;;;;1.50;0.90;;;26.40;1.00;;;;;;5025270;28;20096;-61
2022/08/10 11:14:12;;;;;;;;;;;26.40;1.00;;;;;;5024064;28;20059;-65
2022/08/10 11:16:49;;;;;;;2.22;0.57;;;26.30;1.00;;;;;;5025213;28;19983;-61
2022/08/10 11:19:32;;;;;;;2.97;0.60;;;26.30;1.00;;;;;;5024482;28;20041;-59
2022/08/10 11:22:36;;;;;;;3.85;0.40;;;26.30;1.00;;;;;;5013759;28;20384;-66
2022/08/10 11:25:27;;;;;;;1.50;0.70;;;26.40;2.60;;;;;;5016618;28;20388;-64
2022/08/10 11:27:58;;;;;;;2.95;0.80;;;25.90;10.30;;;;;;5025193;28;20103;-66
2022/08/10 11:30:48;;;;;;;3.83;1.00;;;25.20;18.40;;;;;;5025693;28;20128;-57
2022/08/10 11:33:41;;;;;;;9.07;0.85;;;24.90;18.80;;;;;;5027099;28;20053;-61
2022/08/10 11:36:37;;;;;;;3.92;0.70;;;24.80;20.30;;;;;;5014524;28;20060;-61
2022/08/10 11:39:36;;;;;;;2.25;0.82;;;24.70;32.50;;;;;;5006728;28;20053;-67
2022/08/10 11:42:34;;;;;;;3.80;1.00;;;24.50;35.80;;;;;;5001333;28;20088;-60
2022/08/10 11:45:08;;;;;;;4.32;0.85;;;24.50;50.50;;;;;;4985426;28;20398;-60
2022/08/10 11:47:50;;;;;;;5.57;0.88;;;24.30;59.30;;;;;;5012332;28;20052;-63
2022/08/10 11:50:31;;;;;;;2.17;0.80;;;24.30;46.80;;;;;;5001899;28;20051;-64
2022/08/10 11:53:25;;;;;;;5.57;0.90;;;24.20;62.60;;;;;;5022893;28;20104;-66
2022/08/10 11:55:55;;;;;;;2.00;1.10;;;24.10;56.70;;;;;;5025861;28;20057;-61
2022/08/10 12:01:16;;;;;;;2.28;0.90;;;24.30;69.20;;;;;;5005469;28;20120;-64
2022/08/10 12:03:43;;;;;;;1.15;0.85;;;24.10;74.50;;;;;;5025810;28;20049;-64
2022/08/10 12:06:18;;;;;;;3.88;1.00;;;24.10;62.80;;;;;;5023291;28;20064;-64
2022/08/10 12:08:47;;;;;;;2.60;0.82;;;24.10;59.50;;;;;;5024612;28;20049;-60
2022/08/10 12:11:20;;;;;;;1.58;1.02;;;24.10;62.40;;;;;;5014450;28;20191;-62
2022/08/10 12:13:58;;;;;;;2.67;0.90;;;23.90;78.70;;;;;;5002239;28;20586;-58
2022/08/10 12:16:26;;;;;;;3.88;1.40;;;23.70;78.60;;;;;;5024758;28;20060;-65
2022/08/10 12:19:05;;;;;;;2.75;0.95;;;23.60;75.30;;;;;;4989227;28;20412;-61
2022/08/10 12:21:39;;;;;;;3.60;0.80;;;23.60;77.60;;;;;;5006628;28;20041;-60
2022/08/10 12:24:17;;;;;;;2.55;0.90;;;23.70;82.10;;;;;;5025817;28;20049;-63
2022/08/10 12:27:03;;;;;;;2.00;1.00;;;23.70;73.80;;;;;;5016029;28;20053;-64
2022/08/10 12:29:44;;;;;;;2.67;1.25;;;23.80;79.10;;;;;;4998638;28;20054;-64
2022/08/10 12:32:16;;;;;;;5.32;1.05;;;23.70;78.30;;;;;;5021721;28;20496;-64
2022/08/10 12:35:17;;;;;;;5.03;0.80;;;23.60;67.60;;;;;;5015580;28;20194;-67
2022/08/10 12:38:04;;;;;;;5.72;1.10;;;23.60;81.70;;;;;;5025728;28;20048;-61
2022/08/10 12:40:38;;;;;;;1.92;1.10;;;23.70;86.60;;;;;;5006802;28;20459;-63
2022/08/10 12:43:25;;;;;;;5.35;1.02;;;23.80;91.70;;;;;;5006596;28;20534;-59
2022/08/10 12:46:11;;;;;;;5.28;1.00;;;24.10;77.80;;;;;;5023883;28;20033;-59
2022/08/10 12:49:30;;;;;;;6.70;1.55;;;23.90;57.60;;;;;;5023457;28;20104;-69
2022/08/10 12:52:17;;;;;;;3.60;1.10;;;23.70;70.30;;;;;;4959889;28;20047;-62
2022/08/10 12:54:44;;;;;;;3.55;0.88;;;23.80;84.10;;;;;;5023563;28;20510;-62
2022/08/10 12:57:22;;;;;;;2.05;0.98;;;24.10;87.60;;;;;;5023476;28;20045;-61
2022/08/10 12:59:53;;;;;;;3.40;0.77;;;24.30;78.40;;;;;;5007819;28;20052;-63
2022/08/10 13:02:25;;;;;;;2.97;0.60;;;24.60;75.50;;;;;;4988617;28;20372;-61
2022/08/10 13:04:54;;;;;;;5.50;1.58;;;24.70;53.80;;;;;;4989130;28;20093;-60
2022/08/10 13:09:07;;;;;;;2.60;0.73;;;24.60;61.90;;;;;;4984937;28;20042;-70
2022/08/10 13:10:47;;;;;;;2.25;0.80;;;24.60;63.30;;;;;;4995190;28;20143;-64
2022/08/10 13:13:18;;;;;;;1.65;0.75;;;24.60;66.40;;;;;;5002678;28;20050;-68
2022/08/10 13:15:46;;;;;;;3.67;1.15;;;24.70;80.10;;;;;;4999848;28;20406;-57
2022/08/10 13:18:17;;;;;;;2.65;0.90;;;24.70;67.80;;;;;;4996472;28;20050;-63
2022/08/10 13:20:43;;;;;;;2.03;0.85;;;24.90;73.10;;;;;;4988405;28;20052;-66
2022/08/10 13:23:16;;;;;;;6.05;1.02;;;24.90;58.50;;;;;;5000450;28;20414;-62
2022/08/10 13:25:47;;;;;;;5.40;0.93;;;25.10;72.80;;;;;;4993087;28;20045;-63
2022/08/10 13:28:21;;;;;;;1.02;0.70;;;25.10;66.10;;;;;;5007661;28;20055;-68